createdAt,value
2022-08-26T00:01:54.402Z,97091.00
2022-08-26T00:04:26.004Z,97094.59
2022-08-26T00:06:55.772Z,97093.06
2022-08-26T00:09:25.009Z,97093.72
2022-08-26T00:11:54.275Z,97092.22
2022-08-26T00:14:26.037Z,97095.22
2022-08-26T00:16:55.817Z,97090.66
2022-08-26T00:19:23.239Z,97100.16
2022-08-26T00:21:50.662Z,97086.38
2022-08-26T00:24:21.016Z,97096.22
2022-08-26T00:26:49.372Z,97091.69
2022-08-26T00:29:17.641Z,97088.50
2022-08-26T00:31:45.690Z,97085.84
2022-08-26T00:34:15.353Z,97090.47
2022-08-26T00:36:42.950Z,97090.25
2022-08-26T00:39:10.566Z,97095.13
2022-08-26T00:41:41.626Z,97086.94
2022-08-26T00:44:11.271Z,97087.53
2022-08-26T00:46:46.897Z,97091.69
2022-08-26T00:49:20.206Z,97086.50
2022-08-26T00:51:54.189Z,97089.34
2022-08-26T00:54:27.058Z,97086.59
2022-08-26T00:57:16.386Z,97076.78
2022-08-26T00:59:47.745Z,97076.28
2022-08-26T01:02:21.047Z,97069.50
2022-08-26T01:04:55.639Z,97078.03
2022-08-26T01:07:27.678Z,97076.72
2022-08-26T01:09:59.678Z,97080.50
2022-08-26T01:12:31.948Z,97076.94
2022-08-26T01:14:59.412Z,97082.13
2022-08-26T01:17:26.476Z,97082.72
2022-08-26T01:20:27.231Z,97084.22
2022-08-26T01:23:08.728Z,97086.22
2022-08-26T01:25:40.547Z,97076.19
2022-08-26T01:28:25.961Z,97079.34
2022-08-26T01:30:55.104Z,97077.78
2022-08-26T01:33:29.978Z,97073.47
2022-08-26T01:36:07.980Z,97069.38
2022-08-26T01:38:35.739Z,97067.88
2022-08-26T01:41:03.457Z,97064.28
2022-08-26T01:43:51.186Z,97070.22
2022-08-26T01:46:20.378Z,97063.06
2022-08-26T01:48:49.193Z,97069.50
2022-08-26T01:51:23.474Z,97064.94
2022-08-26T01:53:51.037Z,97057.44
2022-08-26T01:56:18.620Z,97050.28
2022-08-26T01:58:52.835Z,97058.88
2022-08-26T02:01:21.517Z,97056.47
2022-08-26T02:03:56.302Z,97048.38
2022-08-26T02:06:23.835Z,97061.97
2022-08-26T02:08:55.498Z,97054.97
2022-08-26T02:11:23.088Z,97063.34
2022-08-26T02:13:55.227Z,97049.34
2022-08-26T02:16:26.236Z,97055.22
2022-08-26T02:18:55.343Z,97045.00
2022-08-26T02:21:24.923Z,97045.53
2022-08-26T02:23:52.648Z,97053.56
2022-08-26T02:26:24.488Z,97054.97
2022-08-26T02:29:02.945Z,97049.25
2022-08-26T02:31:30.295Z,97049.09
2022-08-26T02:34:13.955Z,97046.69
2022-08-26T02:36:42.936Z,97046.28
2022-08-26T02:39:10.954Z,97062.25
2022-08-26T02:41:44.797Z,97051.31
2022-08-26T02:44:12.357Z,97050.78
2022-08-26T02:46:39.856Z,97058.38
2022-08-26T02:49:07.453Z,97045.94
2022-08-26T02:51:34.459Z,97053.25
2022-08-26T02:54:01.473Z,97056.72
2022-08-26T02:56:29.454Z,97054.63
2022-08-26T02:58:56.966Z,97056.56
2022-08-26T03:01:30.562Z,97056.22
2022-08-26T03:03:59.499Z,97052.00
2022-08-26T03:06:26.548Z,97054.75
2022-08-26T03:08:53.534Z,97060.41
2022-08-26T03:11:20.450Z,97061.13
2022-08-26T03:13:48.965Z,97065.44
2022-08-26T03:16:16.351Z,97061.81
2022-08-26T03:18:43.463Z,97051.44
2022-08-26T03:21:20.504Z,97062.50
2022-08-26T03:23:48.082Z,97052.91
2022-08-26T03:26:15.925Z,97055.38
2022-08-26T03:29:01.814Z,97057.91
2022-08-26T03:31:29.736Z,97058.94
2022-08-26T03:33:59.619Z,97059.25
2022-08-26T03:36:27.052Z,97058.75
2022-08-26T03:38:54.562Z,97062.59
2022-08-26T03:41:21.951Z,97057.00
2022-08-26T03:43:50.991Z,97059.97
2022-08-26T03:46:20.698Z,97065.13
2022-08-26T03:48:48.082Z,97067.22
2022-08-26T03:51:19.868Z,97060.84
2022-08-26T03:53:48.402Z,97070.66
2022-08-26T03:56:15.496Z,97060.44
2022-08-26T03:58:44.612Z,97063.81
2022-08-26T04:01:16.262Z,97070.16
2022-08-26T04:04:00.269Z,97062.59
2022-08-26T04:06:36.306Z,97063.44
2022-08-26T04:09:06.921Z,97066.94
2022-08-26T04:11:38.663Z,97062.31
2022-08-26T04:14:17.721Z,97066.84
2022-08-26T04:16:47.883Z,97060.34
2022-08-26T04:19:16.057Z,97056.75
2022-08-26T04:21:43.534Z,97060.47
2022-08-26T04:24:12.322Z,97069.53
2022-08-26T04:26:42.860Z,97072.53
2022-08-26T04:29:18.238Z,97067.13
2022-08-26T04:31:48.227Z,97075.97
2022-08-26T04:34:16.036Z,97065.97
2022-08-26T04:36:44.766Z,97072.78
2022-08-26T04:39:16.616Z,97065.94
2022-08-26T04:41:46.427Z,97071.25
2022-08-26T04:44:13.870Z,97070.09
2022-08-26T04:46:43.905Z,97071.91
2022-08-26T04:49:11.499Z,97068.41
2022-08-26T04:51:39.198Z,97068.41
2022-08-26T04:54:07.382Z,97071.72
2022-08-26T04:56:38.540Z,97069.19
2022-08-26T04:59:16.612Z,97063.28
2022-08-26T05:01:49.505Z,97069.59
2022-08-26T05:04:18.916Z,97069.88
2022-08-26T05:06:47.296Z,97073.19
2022-08-26T05:09:15.191Z,97065.69
2022-08-26T05:11:42.429Z,97068.69
2022-08-26T05:14:09.816Z,97070.72
2022-08-26T05:16:37.841Z,97071.41
2022-08-26T05:19:08.597Z,97074.72
2022-08-26T05:21:36.533Z,97074.63
2022-08-26T05:24:04.793Z,97067.50
2022-08-26T05:26:32.092Z,97073.75
2022-08-26T05:28:59.090Z,97075.34
2022-08-26T05:31:30.382Z,97078.47
2022-08-26T05:33:58.037Z,97072.72
2022-08-26T05:36:28.026Z,97077.13
2022-08-26T05:38:55.922Z,97077.13
2022-08-26T05:41:34.514Z,97075.78
2022-08-26T05:44:06.206Z,97072.34
2022-08-26T05:46:34.475Z,97073.06
2022-08-26T05:49:01.894Z,97077.81
2022-08-26T05:51:30.420Z,97072.34
2022-08-26T05:53:58.688Z,97072.06
2022-08-26T05:56:27.772Z,97081.06
2022-08-26T05:58:58.431Z,97089.84
2022-08-26T06:01:27.587Z,97086.34
2022-08-26T06:04:01.771Z,97087.09
2022-08-26T06:06:36.002Z,97091.28
2022-08-26T06:09:05.825Z,97087.75
2022-08-26T06:11:33.484Z,97095.25
2022-08-26T06:14:04.225Z,97098.53
2022-08-26T06:16:34.875Z,97108.66
2022-08-26T06:19:10.538Z,97112.50
2022-08-26T06:21:40.236Z,97116.53
2022-08-26T06:24:29.585Z,97117.81
2022-08-26T06:27:01.609Z,97119.41
2022-08-26T06:29:31.200Z,97117.44
2022-08-26T06:31:58.739Z,97122.69
2022-08-26T06:34:30.656Z,97127.88
2022-08-26T06:37:02.434Z,97138.72
2022-08-26T06:39:30.941Z,97142.56
2022-08-26T06:42:02.544Z,97146.75
2022-08-26T06:44:34.289Z,97151.25
2022-08-26T06:47:01.596Z,97146.56
2022-08-26T06:49:28.637Z,97148.28
2022-08-26T06:51:59.897Z,97147.69
2022-08-26T06:54:32.330Z,97159.53
2022-08-26T06:56:59.878Z,97165.84
2022-08-26T06:59:26.975Z,97172.13
2022-08-26T07:01:55.191Z,97175.31
2022-08-26T07:04:23.390Z,97183.03
2022-08-26T07:06:52.367Z,97174.19
2022-08-26T07:09:21.903Z,97171.00
2022-08-26T07:11:49.750Z,97166.72
2022-08-26T07:14:19.296Z,97169.34
2022-08-26T07:16:48.717Z,97167.44
2022-08-26T07:19:17.579Z,97171.19
2022-08-26T07:21:55.967Z,97171.44
2022-08-26T07:24:22.998Z,97172.66
2022-08-26T07:26:50.243Z,97174.28
2022-08-26T07:29:18.724Z,97172.63
2022-08-26T07:31:46.408Z,97174.22
2022-08-26T07:34:14.029Z,97175.03
2022-08-26T07:36:41.520Z,97183.66
2022-08-26T07:39:09.063Z,97177.56
2022-08-26T07:41:36.754Z,97186.22
2022-08-26T07:44:04.355Z,97182.97
2022-08-26T07:46:31.765Z,97181.44
2022-08-26T07:48:58.839Z,97182.13
2022-08-26T07:51:26.381Z,97181.81
2022-08-26T07:53:54.827Z,97181.06
2022-08-26T07:56:23.483Z,97174.16
2022-08-26T07:58:52.965Z,97172.81
2022-08-26T08:01:21.558Z,97174.69
2022-08-26T08:03:51.652Z,97176.31
2022-08-26T08:06:20.117Z,97169.25
2022-08-26T08:08:47.901Z,97159.47
2022-08-26T08:11:21.577Z,97170.09
2022-08-26T08:13:56.571Z,97171.06
2022-08-26T08:16:32.240Z,97161.66
2022-08-26T08:19:00.431Z,97168.13
2022-08-26T08:21:28.308Z,97166.94
2022-08-26T08:23:57.484Z,97164.56
2022-08-26T08:26:25.923Z,97164.50
2022-08-26T08:28:57.953Z,97155.25
2022-08-26T08:31:55.945Z,97159.03
2022-08-26T08:34:15.938Z,97152.09
2022-08-26T08:36:46.476Z,97154.53
2022-08-26T08:39:13.910Z,97155.34
2022-08-26T08:41:48.685Z,97159.94
2022-08-26T08:44:21.508Z,97150.56
2022-08-26T08:47:00.897Z,97150.97
2022-08-26T08:49:29.343Z,97152.81
2022-08-26T08:52:05.578Z,97154.53
2022-08-26T08:54:33.855Z,97156.09
2022-08-26T08:57:17.109Z,97147.06
2022-08-26T08:59:54.396Z,97153.56
2022-08-26T09:02:29.369Z,97156.84
2022-08-26T09:05:28.629Z,97147.41
2022-08-26T09:07:58.658Z,97157.25
2022-08-26T09:10:36.729Z,97153.66
2022-08-26T09:13:09.432Z,97144.25
2022-08-26T09:15:46.714Z,97156.13
2022-08-26T09:18:22.762Z,97154.66
2022-08-26T09:20:59.988Z,97148.47
2022-08-26T09:23:27.432Z,97160.03
2022-08-26T09:26:03.662Z,97155.72
2022-08-26T09:28:32.066Z,97153.50
2022-08-26T09:31:32.862Z,97148.97
2022-08-26T09:34:26.475Z,97144.38
2022-08-26T09:36:55.156Z,97143.41
2022-08-26T09:39:27.963Z,97143.41
2022-08-26T09:42:07.193Z,97152.34
2022-08-26T10:17:16.973Z,97170.03
2022-08-26T10:19:57.862Z,97171.50
2022-08-26T10:22:36.929Z,97169.78
2022-08-26T10:25:09.154Z,97162.25
2022-08-26T10:27:55.031Z,97165.28
2022-08-26T10:30:28.010Z,97170.09
2022-08-26T10:33:04.869Z,97157.59
2022-08-26T10:35:33.539Z,97164.31
2022-08-26T10:38:12.120Z,97157.56
2022-08-26T10:40:43.130Z,97155.66
2022-08-26T10:43:17.966Z,97165.34
2022-08-26T10:45:59.378Z,97157.25
2022-08-26T10:48:59.985Z,97156.47
2022-08-26T10:51:35.644Z,97149.78
2022-08-26T10:54:09.460Z,97142.06
2022-08-26T10:56:44.767Z,97148.75
2022-08-26T10:59:21.502Z,97149.59
2022-08-26T11:02:00.225Z,97151.16
2022-08-26T11:04:37.172Z,97150.00
2022-08-26T11:07:32.132Z,97141.34
2022-08-26T11:10:23.006Z,97144.50
2022-08-26T11:13:00.864Z,97143.63
2022-08-26T11:15:29.337Z,97147.53
2022-08-26T11:18:08.976Z,97140.53
2022-08-26T11:20:36.200Z,97144.97
2022-08-26T11:23:22.575Z,97137.78
2022-08-26T11:26:07.743Z,97126.28
2022-08-26T11:28:44.913Z,97133.81
2022-08-26T11:31:27.463Z,97137.56
2022-08-26T11:34:00.169Z,97127.38
2022-08-26T11:36:45.538Z,97133.72
2022-08-26T11:39:30.431Z,97128.94
2022-08-26T11:42:14.415Z,97140.81
2022-08-26T11:44:49.598Z,97138.50
2022-08-26T11:47:25.103Z,97132.84
2022-08-26T11:50:07.524Z,97138.16
2022-08-26T11:52:34.535Z,97134.78
2022-08-26T11:55:11.778Z,97127.09
2022-08-26T11:57:46.515Z,97129.34
2022-08-26T12:00:26.563Z,97126.31
2022-08-26T12:02:55.727Z,97128.19
2022-08-26T12:05:29.540Z,97126.94
2022-08-26T12:08:06.271Z,97123.31
2022-08-26T12:10:35.232Z,97115.31
2022-08-26T12:13:03.709Z,97118.16
2022-08-26T12:15:32.333Z,97122.13
2022-08-26T12:18:18.106Z,97122.59
2022-08-26T12:20:56.844Z,97125.78
2022-08-26T12:23:25.549Z,97123.81
2022-08-26T12:26:03.117Z,97121.22
2022-08-26T12:28:31.267Z,97123.41
2022-08-26T12:31:03.704Z,97121.97
2022-08-26T12:33:36.513Z,97118.97
2022-08-26T12:36:06.110Z,97123.69
2022-08-26T12:38:36.955Z,97115.69
2022-08-26T12:41:04.222Z,97114.66
2022-08-26T12:43:43.701Z,97111.88
2022-08-26T12:46:16.408Z,97103.28
2022-08-26T12:48:47.595Z,97106.75
2022-08-26T12:51:30.267Z,97101.97
2022-08-26T12:53:58.128Z,97110.16
2022-08-26T12:56:41.176Z,97106.00
2022-08-26T12:59:26.319Z,97106.69
2022-08-26T13:01:55.059Z,97104.22
2022-08-26T13:04:31.784Z,97105.63
2022-08-26T13:07:22.487Z,97107.50
2022-08-26T13:09:52.146Z,97107.34
2022-08-26T13:12:32.711Z,97103.53
2022-08-26T13:15:01.566Z,97106.47
2022-08-26T13:17:30.356Z,97105.28
2022-08-26T13:20:03.297Z,97103.69
2022-08-26T13:22:30.931Z,97097.81
2022-08-26T13:24:58.079Z,97094.28
2022-08-26T13:27:27.287Z,97097.28
2022-08-26T13:29:57.163Z,97098.75
2022-08-26T13:32:26.891Z,97099.28
2022-08-26T13:34:56.366Z,97096.03
2022-08-26T13:37:34.178Z,97097.78
2022-08-26T13:40:06.494Z,97089.69
2022-08-26T13:42:34.520Z,97094.63
2022-08-26T13:45:02.339Z,97083.84
2022-08-26T13:47:29.683Z,97090.56
2022-08-26T13:49:56.663Z,97095.09
2022-08-26T13:52:27.338Z,97090.09
2022-08-26T13:54:58.763Z,97094.75
2022-08-26T13:57:28.027Z,97088.94
2022-08-26T13:59:56.598Z,97082.72
2022-08-26T14:02:23.697Z,97084.66
2022-08-26T14:04:50.767Z,97081.69
2022-08-26T14:07:17.710Z,97083.31
2022-08-26T14:09:44.644Z,97082.19
2022-08-26T14:12:11.739Z,97078.19
2022-08-26T14:14:38.686Z,97070.06
2022-08-26T14:17:06.980Z,97074.38
2022-08-26T14:19:34.062Z,97076.16
2022-08-26T14:22:01.825Z,97079.97
2022-08-26T14:24:29.548Z,97074.19
2022-08-26T14:26:56.579Z,97079.47
2022-08-26T14:29:23.487Z,97075.13
2022-08-26T14:31:50.424Z,97076.25
2022-08-26T14:34:17.470Z,97073.06
2022-08-26T14:36:44.416Z,97072.47
2022-08-26T14:39:13.855Z,97077.59
2022-08-26T14:41:53.719Z,97078.38
2022-08-26T14:44:23.923Z,97067.81
2022-08-26T14:46:53.004Z,97080.13
2022-08-26T14:49:22.198Z,97078.66
2022-08-26T14:51:49.908Z,97078.13
2022-08-26T14:54:18.229Z,97089.03
2022-08-26T14:57:01.092Z,97084.97
2022-08-26T14:59:34.087Z,97081.59
2022-08-26T15:02:01.852Z,97084.66
2022-08-26T15:04:28.991Z,97088.19
2022-08-26T15:06:58.822Z,97087.03
2022-08-26T15:09:28.014Z,97093.16
2022-08-26T15:11:55.172Z,97089.97
2022-08-26T15:14:23.227Z,97097.03
2022-08-26T15:16:53.294Z,97098.28
2022-08-26T15:19:21.135Z,97092.69
2022-08-26T15:21:48.145Z,97086.78
2022-08-26T15:24:17.610Z,97092.38
2022-08-26T15:26:45.819Z,97094.63
2022-08-26T15:29:13.056Z,97094.47
2022-08-26T15:31:40.539Z,97102.22
2022-08-26T15:34:14.583Z,97101.66
2022-08-26T15:36:46.036Z,97097.66
2022-08-26T15:39:13.466Z,97095.31
2022-08-26T15:41:40.622Z,97087.81
2022-08-26T15:44:08.495Z,97095.22
2022-08-26T15:46:37.532Z,97095.72
2022-08-26T15:49:06.057Z,97093.38
2022-08-26T15:51:45.116Z,97097.56
2022-08-26T15:54:16.753Z,97096.75
2022-08-26T15:56:44.104Z,97095.66
2022-08-26T15:59:12.052Z,97096.59
2022-08-26T16:01:39.790Z,97090.47
2022-08-26T16:04:07.272Z,97098.66
2022-08-26T16:06:36.430Z,97089.81
2022-08-26T16:09:04.553Z,97095.28
2022-08-26T16:11:31.637Z,97096.72
2022-08-26T16:13:58.698Z,97102.00
2022-08-26T16:16:26.463Z,97103.00
2022-08-26T16:18:53.824Z,97105.22
2022-08-26T16:21:24.750Z,97101.25
2022-08-26T16:23:52.267Z,97112.16
2022-08-26T16:26:22.840Z,97105.47
2022-08-26T16:28:49.987Z,97109.75
2022-08-26T16:31:17.541Z,97116.00
2022-08-26T16:33:44.481Z,97122.59
2022-08-26T16:36:12.170Z,97120.34
2022-08-26T16:38:40.729Z,97124.03
2022-08-26T16:41:09.159Z,97120.34
2022-08-26T16:43:36.849Z,97118.56
2022-08-26T16:46:07.201Z,97119.72
2022-08-26T16:48:35.067Z,97125.63
2022-08-26T16:51:02.052Z,97125.97
2022-08-26T16:53:29.128Z,97131.06
2022-08-26T16:55:56.055Z,97126.59
2022-08-26T16:58:23.128Z,97130.28
2022-08-26T17:00:50.150Z,97125.31
2022-08-26T17:03:17.899Z,97129.50
2022-08-26T17:05:44.975Z,97132.03
2022-08-26T17:08:14.522Z,97133.00
2022-08-26T17:10:51.790Z,97140.53
2022-08-26T17:13:29.697Z,97136.69
2022-08-26T17:16:05.065Z,97144.38
2022-08-26T17:18:33.556Z,97151.09
2022-08-26T17:21:12.837Z,97155.41
2022-08-26T17:23:41.807Z,97156.69
2022-08-26T17:26:10.920Z,97166.00
2022-08-26T17:28:38.270Z,97167.16
2022-08-26T17:31:06.736Z,97170.84
2022-08-26T17:33:33.748Z,97169.03
2022-08-26T17:36:00.978Z,97173.19
2022-08-26T17:38:29.307Z,97172.03
2022-08-26T17:40:57.584Z,97183.22
2022-08-26T17:43:26.834Z,97180.00
2022-08-26T17:46:07.069Z,97190.25
2022-08-26T17:48:36.220Z,97182.38
2022-08-26T17:51:11.242Z,97185.38
2022-08-26T17:53:38.941Z,97186.97
2022-08-26T17:56:08.325Z,97188.38
2022-08-26T17:58:35.784Z,97194.59
2022-08-26T18:01:03.197Z,97193.91
2022-08-26T18:03:30.196Z,97194.59
2022-08-26T18:05:57.533Z,97193.78
2022-08-26T18:08:24.811Z,97202.09
2022-08-26T18:10:51.850Z,97202.72
2022-08-26T18:13:19.122Z,97205.44
2022-08-26T18:15:47.335Z,97201.34
2022-08-26T18:18:15.382Z,97202.44
2022-08-26T18:20:44.103Z,97203.78
2022-08-26T18:23:12.537Z,97205.41
2022-08-26T18:25:41.828Z,97213.31
2022-08-26T18:28:09.242Z,97211.41
2022-08-26T18:30:36.390Z,97215.13
2022-08-26T18:33:03.572Z,97208.84
2022-08-26T18:35:30.716Z,97212.69
2022-08-26T18:38:00.825Z,97206.31
2022-08-26T18:40:39.843Z,97204.13
2022-08-26T18:43:07.071Z,97209.59
2022-08-26T18:45:34.670Z,97208.59
2022-08-26T18:48:03.767Z,97207.81
2022-08-26T18:50:30.866Z,97201.06
2022-08-26T18:52:57.794Z,97197.38
2022-08-26T18:55:24.927Z,97198.81
2022-08-26T18:57:51.901Z,97217.38
2022-08-26T19:00:18.940Z,97206.16
2022-08-26T19:02:47.069Z,97205.28
2022-08-26T19:05:19.921Z,97204.94
2022-08-26T19:07:47.990Z,97203.78
2022-08-26T19:10:15.130Z,97207.75
2022-08-26T19:12:42.529Z,97211.59
2022-08-26T19:15:11.297Z,97207.59
2022-08-26T19:17:38.250Z,97211.03
2022-08-26T19:20:06.035Z,97213.22
2022-08-26T19:22:33.314Z,97220.78
2022-08-26T19:25:00.919Z,97219.25
2022-08-26T19:27:28.055Z,97215.06
2022-08-26T19:29:57.436Z,97225.97
2022-08-26T19:32:25.386Z,97214.59
2022-08-26T19:34:52.820Z,97214.34
2022-08-26T19:37:20.488Z,97217.25
2022-08-26T19:39:47.888Z,97213.53
2022-08-26T19:42:14.837Z,97214.22
2022-08-26T19:45:00.398Z,97218.63
2022-08-26T19:47:27.453Z,97212.88
2022-08-26T19:49:55.605Z,97219.47
2022-08-26T19:52:24.438Z,97210.53
2022-08-26T19:54:57.390Z,97211.03
2022-08-26T19:57:24.512Z,97202.75
2022-08-26T19:59:51.486Z,97212.25
2022-08-26T20:02:19.355Z,97203.53
2022-08-26T20:04:46.357Z,97199.84
2022-08-26T20:07:18.527Z,97204.13
2022-08-26T20:09:47.088Z,97204.59
2022-08-26T20:12:15.251Z,97204.06
2022-08-26T20:14:42.640Z,97209.13
2022-08-26T20:17:09.678Z,97204.59
2022-08-26T20:19:55.152Z,97207.91
2022-08-26T20:22:22.483Z,97208.31
2022-08-26T20:24:49.843Z,97210.44
2022-08-26T20:27:16.779Z,97209.19
2022-08-26T20:29:43.750Z,97204.13
2022-08-26T20:32:12.089Z,97211.22
2022-08-26T20:34:40.087Z,97212.94
2022-08-26T20:37:08.561Z,97204.69
2022-08-26T20:39:35.853Z,97197.97
2022-08-26T20:42:03.378Z,97208.41
2022-08-26T20:44:30.615Z,97209.13
2022-08-26T20:46:59.251Z,97207.34
2022-08-26T20:49:27.794Z,97206.13
2022-08-26T20:51:55.137Z,97206.66
2022-08-26T20:54:28.270Z,97205.41
2022-08-26T20:56:57.000Z,97209.75
2022-08-26T20:59:24.572Z,97219.91
2022-08-26T21:01:52.031Z,97214.25
2022-08-26T21:04:22.764Z,97224.22
2022-08-26T21:06:52.712Z,97224.22
2022-08-26T21:09:22.545Z,97224.91
2022-08-26T21:11:50.118Z,97219.66
2022-08-26T21:14:17.824Z,97229.13
2022-08-26T21:16:46.087Z,97215.81
2022-08-26T21:19:15.394Z,97211.63
2022-08-26T21:21:42.602Z,97203.41
2022-08-26T21:24:10.237Z,97209.16
2022-08-26T21:26:37.320Z,97224.09
2022-08-26T21:29:05.076Z,97212.25
2022-08-26T21:31:32.306Z,97209.44
2022-08-26T21:33:59.911Z,97212.75
2022-08-26T21:36:27.268Z,97208.97
2022-08-26T21:38:58.198Z,97212.31
2022-08-26T21:41:25.880Z,97214.78
2022-08-26T21:43:55.718Z,97208.44
2022-08-26T21:46:24.025Z,97204.09
2022-08-26T21:49:00.565Z,97199.66
2022-08-26T21:51:31.096Z,97201.13
2022-08-26T21:53:59.640Z,97209.19
2022-08-26T21:56:29.278Z,97205.72
2022-08-26T21:58:56.802Z,97211.47
2022-08-26T22:01:26.934Z,97205.75
2022-08-26T22:03:54.653Z,97217.22
2022-08-26T22:06:26.146Z,97222.81
2022-08-26T22:08:54.125Z,97213.84
2022-08-26T22:11:21.591Z,97208.28
2022-08-26T22:13:49.004Z,97218.66
2022-08-26T22:16:16.956Z,97215.59
2022-08-26T22:18:45.855Z,97211.84
2022-08-26T22:21:19.373Z,97223.22
2022-08-26T22:23:46.858Z,97223.41
2022-08-26T22:26:25.200Z,97226.69
2022-08-26T22:28:54.818Z,97225.06
2022-08-26T22:31:28.098Z,97228.78
2022-08-26T22:34:07.159Z,97227.31
2022-08-26T22:36:34.195Z,97213.50
2022-08-26T22:39:01.253Z,97228.34
2022-08-26T22:41:28.301Z,97229.38
2022-08-26T22:43:55.505Z,97221.25
2022-08-26T22:46:25.538Z,97225.47
2022-08-26T22:48:53.923Z,97223.47
2022-08-26T22:51:22.180Z,97229.72
2022-08-26T22:53:49.505Z,97226.50
2022-08-26T22:56:18.428Z,97226.03
2022-08-26T22:58:45.740Z,97228.59
2022-08-26T23:01:13.368Z,97220.09
2022-08-26T23:03:40.416Z,97222.69
2022-08-26T23:06:10.266Z,97231.03
2022-08-26T23:08:38.937Z,97217.78
2022-08-26T23:11:10.747Z,97225.81
2022-08-26T23:13:38.714Z,97219.97
2022-08-26T23:16:09.873Z,97221.47
2022-08-26T23:18:37.458Z,97226.03
2022-08-26T23:21:05.036Z,97227.75
2022-08-26T23:23:32.878Z,97231.63
2022-08-26T23:26:03.239Z,97232.59
2022-08-26T23:28:32.593Z,97228.31
2022-08-26T23:30:59.764Z,97221.19
2022-08-26T23:33:46.652Z,97218.59
2022-08-26T23:36:17.875Z,97207.00
2022-08-26T23:38:52.915Z,97213.53
2022-08-26T23:41:22.942Z,97219.06
2022-08-26T23:43:51.660Z,97215.00
2022-08-26T23:46:19.273Z,97222.41
2022-08-26T23:48:46.631Z,97221.91
2022-08-26T23:51:31.981Z,97214.16
2022-08-26T23:53:59.001Z,97217.59
2022-08-26T23:56:26.742Z,97218.91
2022-08-26T23:58:54.607Z,97211.56
